(ↄ) | Dror Bar-Natan: AcademicPensieve: About    Recent Changes    This Month    Random

<<  2010-09  >>  
Jump to: Notebook Pages | Mathematica Notebooks | Links | Other Files

Also active this month: Annotations: Etingof - Kazhdan, Projects: AcademicPensieve, Classes: 10-327, Classes: 10-1100, Classes: General.
Note that all 10-327 material that was here moved to Classes: 10-327.
Note that all 10-1100 material that was here moved to Classes: 10-1100.

<< Notebook Pages >>

 PageCreated (UT)Last Modified (UT)
1 Scratch 2010-09-08 11:28:34 2010-09-10 16:54:57
2 Random 2010-09-12 00:18:20 2010-09-13 01:38:16
3 Chicago Plans 2010-07-13 15:17:23 2010-08-30 02:08:57
4 --- Chicago ax+b Talk as of September 1 2010-08-30 02:07:09 2010-09-02 19:31:25
5 --- Chicago ax+b Talk as of September 2 2010-09-02 19:30:52 2010-09-03 13:49:52
6 --- Chicago ax+b Talk as of September 7 2010-09-07 14:14:28 2010-09-08 22:32:06
7 --- Chicago ax+b Talk as of September 8 2010-09-08 22:33:33 2010-09-08 23:40:09
8 --- Chicago ax+b Talk as of September 10 2010-09-10 16:56:20 2010-09-10 19:43:37
9 --- Chicago 18C Talk as of August 29 2010-08-30 02:08:02 2010-09-08 23:56:16
10 Alexander by Head Scattering 2010-09-03 13:50:05 2010-09-03 15:11:28
11 Tail scattering of opposite-head pairs 2010-09-03 15:22:14 2010-09-03 16:57:45
12 Tail scattering towards the head 2010-09-03 16:57:50 2010-09-07 17:02:03
13 The Wirtinger-Alexander Law 2010-09-03 21:59:41 2010-09-07 18:11:58
14 Simple-minded matrix book-keeping 2010-09-07 19:23:55 2010-09-11 16:03:33
15 A Brave, New, Sweeping Strategy 2010-09-10 19:14:53 2010-09-11 16:25:10
16 Przytycki @ UIC: Homology of Racks and Quandles: Linearization of Non-Associative Structures 2010-09-10 18:00:07 2010-09-10 18:53:09
17 Chmutov @ UIC: Legendrian and Transverse Knots and their Invariants 2010-09-10 20:07:38 2010-09-10 21:10:25
18 Satoh @ UIC: Fox colorings and cocycle invariants of roll-spun knots 2010-09-10 23:43:01 2010-09-11 00:00:18
19 Libgober @ UIC: Alexander Invariants of Complements of Singular Curves in P^2(C) 2010-09-11 21:11:22 2010-09-11 21:17:14
20 Tips from Your Graduate Coordinator 2009-09-08 16:25:01 2010-09-14 11:07:46
21 The Alexander Quandle 2010-09-14 18:29:58 2010-09-14 18:53:16
22 Wigderson@Fields: Randomness, Pseudorandomness and Derandomization 2010-09-14 18:57:02 2010-09-15 19:31:01
23 Homomorphic Expansions for Knotted Trivalent Graphs - Fixing an Anomaly 2010-09-15 18:54:31 2010-09-15 19:17:56
24 Topological Manin Triples 2010-09-17 13:59:39 2010-09-17 14:09:54
25 Artstein-Avidan @ Coxeter: Abstract duality, the Legendre transform and a new duality transform 2010-09-17 19:29:26 2010-09-17 19:59:49
26 Artstein-Avidan @ Coxeter: Multiplicative transforms and characterization of the Fourier transform 2010-09-21 19:30:41 2010-09-21 20:06:32
27 Hamilton's Equations 2010-09-19 23:52:17 2010-09-20 00:00:47
28 The v-Twist 2010-09-21 00:42:27 2010-09-21 00:44:36
29 Kamnitzer: Modular tensor categories and modular functors: braided tensor categories and quantum groups 2010-09-22 13:08:32 2010-09-22 14:24:39
30 Halacheva: Link Invariants from Ribbon Categories 2010-09-29 13:17:54 2010-09-29 15:00:30
31 The Cob Filtration 2010-09-22 22:13:49 2010-09-22 22:38:57
32 Ceiling mounted bottom dwellers 2010-09-26 22:50:22 2010-09-26 23:56:43
33 Kim: Quantum affine algebras, canonical bases and q-deformation of arithmetical functions 2010-09-29 18:08:01 2010-09-29 18:20:47
34 Symmetric Spaces 2010-09-29 18:22:56 2010-10-06 15:10:42
35 Braverman@Colloq: On bounded-depth Boolean circuits 2010-09-29 20:10:10 2010-09-29 20:49:17
(.one source file for all pages above)

<< Mathematica Notebooks >>

 Notebook (.pdf)Source (.nb)CreatedLast ModifiedSummary
1 ASampleLambda source 2015-12-17 20:13:22 2010-09-11 11:32:58 A sample Lambda generated using TailScatteringTowardsTheHead.
2 StrongLawOfSmallNumbers source 2015-12-17 20:13:22 2010-09-06 20:50:23 Brute force "The Strong Law of Small Numbers" (http://www.math.sjsu.edu/~hsu/courses/126/Law-of-Small-Numbers.pdf), for no reason at all.
3 TailScatteringTowardsTheHead-Program source 2015-12-17 20:13:22 2010-09-10 19:02:49 Verifying the "2D Lie Algebra" formula for the Alexander polynomial. Also, YAAP - Yet Another Alexander Program.
4 TailScatteringTowardsTheHead-Runs source 2015-12-17 20:13:22 2010-09-11 12:20:11 Testing TailScatteringTowardsTheHead.

<< Links >>

  1. Studied 2011-05-13 10:04:34: Dror Bar-Natan Talks Chicago-1009.

<< Other Files >>

TailScatteringTowardsTheHead-Program.m  


   <<  2010-09  >>

All Subdirectories

nb   one  

All Files

ASampleLambda.nb   Dror Bar-Natan Talks Chicago-1009.URL   index.html   index.m   StrongLawOfSmallNumbers.nb   TailScatteringTowardsTheHead-Program.m   TailScatteringTowardsTheHead-Program.nb   TailScatteringTowardsTheHead-Runs.nb